sensor_id;sensor_type;location;lat;lon;timestamp;P1;durP1;ratioP1;P2;durP2;ratioP2
25950;SDS011;13748;52.240;6.002;2023-03-02T00:00:42;115.93;;;38.60;;
25950;SDS011;13748;52.240;6.002;2023-03-02T00:03:10;107.30;;;38.10;;
25950;SDS011;13748;52.240;6.002;2023-03-02T00:05:39;106.23;;;38.97;;
25950;SDS011;13748;52.240;6.002;2023-03-02T00:08:07;105.87;;;38.27;;
25950;SDS011;13748;52.240;6.002;2023-03-02T00:10:35;106.87;;;37.97;;
25950;SDS011;13748;52.240;6.002;2023-03-02T00:13:03;107.13;;;38.47;;
25950;SDS011;13748;52.240;6.002;2023-03-02T00:15:30;108.73;;;39.53;;
25950;SDS011;13748;52.240;6.002;2023-03-02T00:17:57;108.17;;;40.57;;
25950;SDS011;13748;52.240;6.002;2023-03-02T00:20:23;113.27;;;38.73;;
25950;SDS011;13748;52.240;6.002;2023-03-02T00:22:51;106.27;;;39.80;;
25950;SDS011;13748;52.240;6.002;2023-03-02T00:25:18;122.20;;;41.30;;
25950;SDS011;13748;52.240;6.002;2023-03-02T00:27:45;111.23;;;40.07;;
25950;SDS011;13748;52.240;6.002;2023-03-02T00:30:12;101.90;;;38.60;;
25950;SDS011;13748;52.240;6.002;2023-03-02T00:32:43;116.07;;;40.23;;
25950;SDS011;13748;52.240;6.002;2023-03-02T00:35:11;115.53;;;38.37;;
25950;SDS011;13748;52.240;6.002;2023-03-02T00:37:37;100.87;;;38.57;;
25950;SDS011;13748;52.240;6.002;2023-03-02T00:40:05;109.13;;;38.50;;
25950;SDS011;13748;52.240;6.002;2023-03-02T00:42:35;107.10;;;37.27;;
25950;SDS011;13748;52.240;6.002;2023-03-02T00:45:03;111.97;;;38.30;;
25950;SDS011;13748;52.240;6.002;2023-03-02T00:47:32;105.33;;;37.30;;
25950;SDS011;13748;52.240;6.002;2023-03-02T00:50:00;103.63;;;37.67;;
25950;SDS011;13748;52.240;6.002;2023-03-02T00:52:28;95.20;;;36.53;;
25950;SDS011;13748;52.240;6.002;2023-03-02T00:54:55;96.40;;;37.43;;
25950;SDS011;13748;52.240;6.002;2023-03-02T00:57:22;105.57;;;37.13;;
25950;SDS011;13748;52.240;6.002;2023-03-02T00:59:49;102.37;;;35.20;;
25950;SDS011;13748;52.240;6.002;2023-03-02T01:02:16;104.73;;;39.27;;
25950;SDS011;13748;52.240;6.002;2023-03-02T01:04:43;111.70;;;36.80;;
25950;SDS011;13748;52.240;6.002;2023-03-02T01:07:13;103.07;;;35.97;;
25950;SDS011;13748;52.240;6.002;2023-03-02T01:09:42;101.57;;;37.77;;
25950;SDS011;13748;52.240;6.002;2023-03-02T01:12:10;116.43;;;39.47;;
25950;SDS011;13748;52.240;6.002;2023-03-02T01:14:38;105.77;;;36.63;;
25950;SDS011;13748;52.240;6.002;2023-03-02T01:17:07;115.37;;;37.97;;
25950;SDS011;13748;52.240;6.002;2023-03-02T01:19:35;110.60;;;38.20;;
25950;SDS011;13748;52.240;6.002;2023-03-02T01:22:02;113.00;;;38.27;;
25950;SDS011;13748;52.240;6.002;2023-03-02T01:24:29;106.97;;;37.67;;
25950;SDS011;13748;52.240;6.002;2023-03-02T01:26:57;106.37;;;38.00;;
25950;SDS011;13748;52.240;6.002;2023-03-02T01:29:24;105.07;;;36.10;;
25950;SDS011;13748;52.240;6.002;2023-03-02T01:31:51;102.33;;;36.73;;
25950;SDS011;13748;52.240;6.002;2023-03-02T01:34:18;101.33;;;36.07;;
25950;SDS011;13748;52.240;6.002;2023-03-02T01:36:45;102.33;;;38.03;;
25950;SDS011;13748;52.240;6.002;2023-03-02T01:39:12;95.17;;;33.67;;
25950;SDS011;13748;52.240;6.002;2023-03-02T01:41:42;111.77;;;35.60;;
25950;SDS011;13748;52.240;6.002;2023-03-02T01:47:23;99.73;;;35.00;;
25950;SDS011;13748;52.240;6.002;2023-03-02T01:52:40;108.70;;;37.03;;
25950;SDS011;13748;52.240;6.002;2023-03-02T01:55:08;106.97;;;36.10;;
25950;SDS011;13748;52.240;6.002;2023-03-02T01:57:39;108.27;;;37.13;;
25950;SDS011;13748;52.240;6.002;2023-03-02T02:00:11;103.80;;;36.40;;
25950;SDS011;13748;52.240;6.002;2023-03-02T02:02:44;110.40;;;37.63;;
25950;SDS011;13748;52.240;6.002;2023-03-02T02:05:13;98.20;;;36.17;;
25950;SDS011;13748;52.240;6.002;2023-03-02T02:07:44;120.93;;;37.67;;
25950;SDS011;13748;52.240;6.002;2023-03-02T02:10:11;111.80;;;38.90;;
25950;SDS011;13748;52.240;6.002;2023-03-02T02:12:39;108.27;;;35.30;;
25950;SDS011;13748;52.240;6.002;2023-03-02T02:15:06;102.30;;;36.77;;
25950;SDS011;13748;52.240;6.002;2023-03-02T02:17:45;113.63;;;36.20;;
25950;SDS011;13748;52.240;6.002;2023-03-02T02:28:20;118.93;;;37.43;;
25950;SDS011;13748;52.240;6.002;2023-03-02T02:31:01;135.67;;;41.30;;
25950;SDS011;13748;52.240;6.002;2023-03-02T02:33:54;131.93;;;38.47;;
25950;SDS011;13748;52.240;6.002;2023-03-02T02:36:31;135.33;;;39.33;;
25950;SDS011;13748;52.240;6.002;2023-03-02T02:39:03;131.90;;;37.60;;
25950;SDS011;13748;52.240;6.002;2023-03-02T02:41:36;130.00;;;38.60;;
25950;SDS011;13748;52.240;6.002;2023-03-02T02:44:04;122.60;;;38.33;;
25950;SDS011;13748;52.240;6.002;2023-03-02T02:46:32;132.50;;;38.67;;
25950;SDS011;13748;52.240;6.002;2023-03-02T02:49:00;106.43;;;36.80;;
25950;SDS011;13748;52.240;6.002;2023-03-02T02:51:28;109.10;;;37.33;;
25950;SDS011;13748;52.240;6.002;2023-03-02T02:53:56;116.23;;;38.40;;
25950;SDS011;13748;52.240;6.002;2023-03-02T02:56:27;109.73;;;35.77;;
25950;SDS011;13748;52.240;6.002;2023-03-02T02:59:20;115.07;;;36.63;;
25950;SDS011;13748;52.240;6.002;2023-03-02T03:01:48;105.80;;;34.93;;
25950;SDS011;13748;52.240;6.002;2023-03-02T03:04:20;111.90;;;35.43;;
25950;SDS011;13748;52.240;6.002;2023-03-02T03:06:51;100.83;;;33.53;;
25950;SDS011;13748;52.240;6.002;2023-03-02T03:09:23;110.07;;;34.53;;
25950;SDS011;13748;52.240;6.002;2023-03-02T03:11:51;108.83;;;35.53;;
25950;SDS011;13748;52.240;6.002;2023-03-02T03:14:29;92.50;;;32.67;;
25950;SDS011;13748;52.240;6.002;2023-03-02T03:17:00;97.10;;;33.07;;
25950;SDS011;13748;52.240;6.002;2023-03-02T03:19:28;99.33;;;34.57;;
25950;SDS011;13748;52.240;6.002;2023-03-02T03:21:57;97.23;;;34.07;;
25950;SDS011;13748;52.240;6.002;2023-03-02T03:24:26;110.20;;;35.77;;
25950;SDS011;13748;52.240;6.002;2023-03-02T03:26:54;108.07;;;35.30;;
25950;SDS011;13748;52.240;6.002;2023-03-02T03:29:22;105.00;;;33.43;;
25950;SDS011;13748;52.240;6.002;2023-03-02T03:31:52;108.10;;;35.70;;
25950;SDS011;13748;52.240;6.002;2023-03-02T03:34:20;110.70;;;34.53;;
25950;SDS011;13748;52.240;6.002;2023-03-02T03:36:48;110.50;;;37.10;;
25950;SDS011;13748;52.240;6.002;2023-03-02T03:39:15;121.83;;;38.70;;
25950;SDS011;13748;52.240;6.002;2023-03-02T03:41:43;113.43;;;37.97;;
25950;SDS011;13748;52.240;6.002;2023-03-02T03:44:10;112.73;;;35.90;;
25950;SDS011;13748;52.240;6.002;2023-03-02T03:46:37;118.70;;;35.43;;
25950;SDS011;13748;52.240;6.002;2023-03-02T03:49:04;115.47;;;36.93;;
25950;SDS011;13748;52.240;6.002;2023-03-02T03:51:31;123.53;;;36.60;;
25950;SDS011;13748;52.240;6.002;2023-03-02T03:54:04;123.63;;;37.30;;
25950;SDS011;13748;52.240;6.002;2023-03-02T03:56:34;109.23;;;34.63;;
25950;SDS011;13748;52.240;6.002;2023-03-02T03:59:04;109.23;;;34.70;;
25950;SDS011;13748;52.240;6.002;2023-03-02T04:01:37;102.03;;;32.50;;
25950;SDS011;13748;52.240;6.002;2023-03-02T04:04:07;101.83;;;32.73;;
25950;SDS011;13748;52.240;6.002;2023-03-02T04:06:37;105.07;;;33.93;;
25950;SDS011;13748;52.240;6.002;2023-03-02T04:09:05;106.37;;;36.87;;
25950;SDS011;13748;52.240;6.002;2023-03-02T04:11:37;113.47;;;35.93;;
25950;SDS011;13748;52.240;6.002;2023-03-02T04:14:06;122.43;;;35.50;;
25950;SDS011;13748;52.240;6.002;2023-03-02T04:16:34;112.97;;;36.40;;
25950;SDS011;13748;52.240;6.002;2023-03-02T04:19:01;113.30;;;34.83;;
25950;SDS011;13748;52.240;6.002;2023-03-02T04:21:29;104.93;;;35.33;;
25950;SDS011;13748;52.240;6.002;2023-03-02T04:23:56;119.43;;;34.93;;
25950;SDS011;13748;52.240;6.002;2023-03-02T04:26:23;115.67;;;34.20;;
25950;SDS011;13748;52.240;6.002;2023-03-02T04:28:51;118.53;;;37.13;;
25950;SDS011;13748;52.240;6.002;2023-03-02T04:31:18;118.80;;;35.93;;
25950;SDS011;13748;52.240;6.002;2023-03-02T04:33:45;124.70;;;35.67;;
25950;SDS011;13748;52.240;6.002;2023-03-02T04:36:12;142.57;;;40.10;;
25950;SDS011;13748;52.240;6.002;2023-03-02T04:38:39;132.93;;;38.50;;
25950;SDS011;13748;52.240;6.002;2023-03-02T04:41:05;127.07;;;39.10;;
25950;SDS011;13748;52.240;6.002;2023-03-02T04:43:32;120.10;;;38.33;;
25950;SDS011;13748;52.240;6.002;2023-03-02T04:45:59;118.93;;;37.47;;
25950;SDS011;13748;52.240;6.002;2023-03-02T04:48:26;124.87;;;38.77;;
25950;SDS011;13748;52.240;6.002;2023-03-02T04:50:53;135.60;;;38.53;;
25950;SDS011;13748;52.240;6.002;2023-03-02T04:53:19;134.37;;;37.77;;
25950;SDS011;13748;52.240;6.002;2023-03-02T04:55:46;118.60;;;38.13;;
25950;SDS011;13748;52.240;6.002;2023-03-02T04:58:13;124.47;;;38.97;;
25950;SDS011;13748;52.240;6.002;2023-03-02T05:00:40;111.90;;;36.37;;
25950;SDS011;13748;52.240;6.002;2023-03-02T05:03:07;126.63;;;37.93;;
25950;SDS011;13748;52.240;6.002;2023-03-02T05:05:34;127.33;;;37.77;;
25950;SDS011;13748;52.240;6.002;2023-03-02T05:08:00;123.57;;;38.33;;
25950;SDS011;13748;52.240;6.002;2023-03-02T05:10:27;115.63;;;35.77;;
25950;SDS011;13748;52.240;6.002;2023-03-02T05:12:54;114.57;;;37.50;;
25950;SDS011;13748;52.240;6.002;2023-03-02T05:15:28;117.17;;;36.27;;
25950;SDS011;13748;52.240;6.002;2023-03-02T05:18:06;126.33;;;36.60;;
25950;SDS011;13748;52.240;6.002;2023-03-02T05:20:34;123.50;;;37.17;;
25950;SDS011;13748;52.240;6.002;2023-03-02T05:23:06;121.17;;;35.20;;
25950;SDS011;13748;52.240;6.002;2023-03-02T05:25:34;118.03;;;34.50;;
25950;SDS011;13748;52.240;6.002;2023-03-02T05:28:03;112.23;;;35.50;;
25950;SDS011;13748;52.240;6.002;2023-03-02T05:30:30;118.07;;;34.43;;
25950;SDS011;13748;52.240;6.002;2023-03-02T05:33:02;116.70;;;35.87;;
25950;SDS011;13748;52.240;6.002;2023-03-02T05:35:29;107.33;;;36.03;;
25950;SDS011;13748;52.240;6.002;2023-03-02T05:37:56;103.73;;;33.60;;
25950;SDS011;13748;52.240;6.002;2023-03-02T05:40:22;109.07;;;34.40;;
25950;SDS011;13748;52.240;6.002;2023-03-02T05:42:49;97.57;;;33.63;;
25950;SDS011;13748;52.240;6.002;2023-03-02T05:45:21;98.93;;;31.97;;
25950;SDS011;13748;52.240;6.002;2023-03-02T05:47:53;105.03;;;34.67;;
25950;SDS011;13748;52.240;6.002;2023-03-02T05:50:20;102.73;;;31.83;;
25950;SDS011;13748;52.240;6.002;2023-03-02T05:52:48;101.63;;;32.67;;
25950;SDS011;13748;52.240;6.002;2023-03-02T05:55:15;103.63;;;32.97;;
25950;SDS011;13748;52.240;6.002;2023-03-02T05:57:43;94.57;;;32.13;;
25950;SDS011;13748;52.240;6.002;2023-03-02T06:00:10;105.10;;;34.70;;
25950;SDS011;13748;52.240;6.002;2023-03-02T06:02:39;104.90;;;32.83;;
25950;SDS011;13748;52.240;6.002;2023-03-02T06:05:07;106.17;;;34.47;;
25950;SDS011;13748;52.240;6.002;2023-03-02T06:07:36;98.27;;;35.17;;
25950;SDS011;13748;52.240;6.002;2023-03-02T06:10:06;116.60;;;36.20;;
25950;SDS011;13748;52.240;6.002;2023-03-02T06:12:36;115.27;;;33.93;;
25950;SDS011;13748;52.240;6.002;2023-03-02T06:15:03;113.50;;;34.10;;
25950;SDS011;13748;52.240;6.002;2023-03-02T06:17:31;114.07;;;33.77;;
25950;SDS011;13748;52.240;6.002;2023-03-02T06:19:58;105.43;;;34.00;;
25950;SDS011;13748;52.240;6.002;2023-03-02T06:22:25;107.10;;;33.27;;
25950;SDS011;13748;52.240;6.002;2023-03-02T06:24:52;92.30;;;31.83;;
25950;SDS011;13748;52.240;6.002;2023-03-02T06:27:20;101.87;;;30.70;;
25950;SDS011;13748;52.240;6.002;2023-03-02T06:29:47;109.10;;;32.50;;
25950;SDS011;13748;52.240;6.002;2023-03-02T06:32:14;101.60;;;31.70;;
25950;SDS011;13748;52.240;6.002;2023-03-02T06:34:41;105.30;;;31.63;;
25950;SDS011;13748;52.240;6.002;2023-03-02T06:37:08;97.57;;;31.37;;
25950;SDS011;13748;52.240;6.002;2023-03-02T06:39:35;96.60;;;30.27;;
25950;SDS011;13748;52.240;6.002;2023-03-02T06:42:02;112.17;;;32.30;;
25950;SDS011;13748;52.240;6.002;2023-03-02T06:44:29;119.50;;;33.53;;
25950;SDS011;13748;52.240;6.002;2023-03-02T06:46:55;112.70;;;32.77;;
25950;SDS011;13748;52.240;6.002;2023-03-02T06:49:22;107.17;;;31.70;;
25950;SDS011;13748;52.240;6.002;2023-03-02T06:51:50;126.30;;;37.23;;
25950;SDS011;13748;52.240;6.002;2023-03-02T06:54:16;113.57;;;34.90;;
25950;SDS011;13748;52.240;6.002;2023-03-02T06:56:43;119.80;;;34.70;;
25950;SDS011;13748;52.240;6.002;2023-03-02T06:59:10;128.83;;;35.93;;
25950;SDS011;13748;52.240;6.002;2023-03-02T07:01:36;142.10;;;35.57;;
25950;SDS011;13748;52.240;6.002;2023-03-02T07:04:03;117.63;;;34.83;;
25950;SDS011;13748;52.240;6.002;2023-03-02T07:06:30;118.30;;;34.10;;
25950;SDS011;13748;52.240;6.002;2023-03-02T07:08:57;119.10;;;33.53;;
25950;SDS011;13748;52.240;6.002;2023-03-02T07:11:24;122.60;;;35.37;;
25950;SDS011;13748;52.240;6.002;2023-03-02T07:13:50;124.10;;;34.77;;
25950;SDS011;13748;52.240;6.002;2023-03-02T07:16:17;115.00;;;33.80;;
25950;SDS011;13748;52.240;6.002;2023-03-02T07:18:44;110.73;;;35.27;;
25950;SDS011;13748;52.240;6.002;2023-03-02T07:21:11;125.63;;;34.40;;
25950;SDS011;13748;52.240;6.002;2023-03-02T07:23:37;116.53;;;34.40;;
25950;SDS011;13748;52.240;6.002;2023-03-02T07:26:04;109.43;;;33.63;;
25950;SDS011;13748;52.240;6.002;2023-03-02T07:28:37;108.23;;;33.03;;
25950;SDS011;13748;52.240;6.002;2023-03-02T07:31:05;121.90;;;34.13;;
25950;SDS011;13748;52.240;6.002;2023-03-02T07:33:33;118.13;;;34.37;;
25950;SDS011;13748;52.240;6.002;2023-03-02T07:36:00;106.70;;;33.33;;
25950;SDS011;13748;52.240;6.002;2023-03-02T07:38:27;105.90;;;32.73;;
25950;SDS011;13748;52.240;6.002;2023-03-02T07:40:54;109.30;;;31.17;;
25950;SDS011;13748;52.240;6.002;2023-03-02T07:43:21;100.07;;;31.93;;
25950;SDS011;13748;52.240;6.002;2023-03-02T07:45:53;97.87;;;30.80;;
25950;SDS011;13748;52.240;6.002;2023-03-02T07:48:20;106.57;;;30.90;;
25950;SDS011;13748;52.240;6.002;2023-03-02T07:50:48;106.43;;;32.90;;
25950;SDS011;13748;52.240;6.002;2023-03-02T07:53:15;106.93;;;32.40;;
25950;SDS011;13748;52.240;6.002;2023-03-02T07:55:41;89.10;;;30.87;;
25950;SDS011;13748;52.240;6.002;2023-03-02T07:58:08;90.60;;;31.43;;
25950;SDS011;13748;52.240;6.002;2023-03-02T08:00:35;98.50;;;32.47;;
25950;SDS011;13748;52.240;6.002;2023-03-02T08:03:02;89.37;;;28.60;;
25950;SDS011;13748;52.240;6.002;2023-03-02T08:05:29;100.67;;;30.33;;
25950;SDS011;13748;52.240;6.002;2023-03-02T08:07:56;91.07;;;32.13;;
25950;SDS011;13748;52.240;6.002;2023-03-02T08:10:23;87.93;;;30.47;;
25950;SDS011;13748;52.240;6.002;2023-03-02T08:12:49;93.07;;;31.17;;
25950;SDS011;13748;52.240;6.002;2023-03-02T08:15:16;85.73;;;29.33;;
25950;SDS011;13748;52.240;6.002;2023-03-02T08:17:43;90.23;;;29.13;;
25950;SDS011;13748;52.240;6.002;2023-03-02T08:20:10;83.23;;;28.37;;
25950;SDS011;13748;52.240;6.002;2023-03-02T08:22:37;76.77;;;27.50;;
25950;SDS011;13748;52.240;6.002;2023-03-02T08:25:04;75.23;;;26.60;;
25950;SDS011;13748;52.240;6.002;2023-03-02T08:27:32;69.40;;;26.83;;
25950;SDS011;13748;52.240;6.002;2023-03-02T08:29:59;72.03;;;25.87;;
25950;SDS011;13748;52.240;6.002;2023-03-02T08:32:26;72.63;;;27.27;;
25950;SDS011;13748;52.240;6.002;2023-03-02T08:34:52;67.20;;;25.33;;
25950;SDS011;13748;52.240;6.002;2023-03-02T08:37:19;65.43;;;24.63;;
25950;SDS011;13748;52.240;6.002;2023-03-02T08:39:46;58.77;;;25.07;;
25950;SDS011;13748;52.240;6.002;2023-03-02T08:42:13;63.90;;;25.80;;
25950;SDS011;13748;52.240;6.002;2023-03-02T08:44:40;74.27;;;26.60;;
25950;SDS011;13748;52.240;6.002;2023-03-02T08:47:07;71.17;;;27.10;;
25950;SDS011;13748;52.240;6.002;2023-03-02T08:49:34;69.27;;;25.23;;
25950;SDS011;13748;52.240;6.002;2023-03-02T08:52:03;67.50;;;26.23;;
25950;SDS011;13748;52.240;6.002;2023-03-02T08:54:30;71.53;;;27.67;;
25950;SDS011;13748;52.240;6.002;2023-03-02T08:57:00;64.63;;;25.07;;
25950;SDS011;13748;52.240;6.002;2023-03-02T08:59:27;64.13;;;25.33;;
25950;SDS011;13748;52.240;6.002;2023-03-02T09:01:57;60.73;;;25.70;;
25950;SDS011;13748;52.240;6.002;2023-03-02T09:04:24;66.37;;;26.60;;
25950;SDS011;13748;52.240;6.002;2023-03-02T09:06:51;62.37;;;26.03;;
25950;SDS011;13748;52.240;6.002;2023-03-02T09:09:18;52.10;;;25.17;;
25950;SDS011;13748;52.240;6.002;2023-03-02T09:11:44;59.60;;;24.20;;
25950;SDS011;13748;52.240;6.002;2023-03-02T09:14:11;53.77;;;22.43;;
25950;SDS011;13748;52.240;6.002;2023-03-02T09:16:38;50.47;;;22.57;;
25950;SDS011;13748;52.240;6.002;2023-03-02T09:19:05;45.13;;;20.43;;
25950;SDS011;13748;52.240;6.002;2023-03-02T09:21:32;50.63;;;21.67;;
25950;SDS011;13748;52.240;6.002;2023-03-02T09:23:59;52.60;;;22.70;;
25950;SDS011;13748;52.240;6.002;2023-03-02T09:26:26;46.33;;;21.63;;
25950;SDS011;13748;52.240;6.002;2023-03-02T09:28:53;46.10;;;22.23;;
25950;SDS011;13748;52.240;6.002;2023-03-02T09:31:21;46.40;;;21.80;;
25950;SDS011;13748;52.240;6.002;2023-03-02T09:33:48;59.10;;;21.57;;
25950;SDS011;13748;52.240;6.002;2023-03-02T09:36:20;51.83;;;23.37;;
25950;SDS011;13748;52.240;6.002;2023-03-02T09:38:49;58.83;;;24.30;;
25950;SDS011;13748;52.240;6.002;2023-03-02T09:43:56;50.10;;;24.57;;
25950;SDS011;13748;52.240;6.002;2023-03-02T09:46:43;50.60;;;21.60;;
25950;SDS011;13748;52.240;6.002;2023-03-02T09:54:41;45.70;;;21.10;;
25950;SDS011;13748;52.240;6.002;2023-03-02T09:57:21;47.87;;;21.07;;
25950;SDS011;13748;52.240;6.002;2023-03-02T09:59:56;43.77;;;20.60;;
25950;SDS011;13748;52.240;6.002;2023-03-02T10:02:50;41.73;;;19.50;;
25950;SDS011;13748;52.240;6.002;2023-03-02T10:05:30;38.50;;;19.63;;
25950;SDS011;13748;52.240;6.002;2023-03-02T10:08:02;48.63;;;21.53;;
25950;SDS011;13748;52.240;6.002;2023-03-02T10:10:36;44.97;;;22.37;;
25950;SDS011;13748;52.240;6.002;2023-03-02T10:13:17;41.63;;;20.37;;
25950;SDS011;13748;52.240;6.002;2023-03-02T10:18:29;40.30;;;20.17;;
25950;SDS011;13748;52.240;6.002;2023-03-02T10:23:55;41.83;;;19.23;;
25950;SDS011;13748;52.240;6.002;2023-03-02T10:26:32;38.97;;;18.63;;
25950;SDS011;13748;52.240;6.002;2023-03-02T10:31:43;38.40;;;20.10;;
25950;SDS011;13748;52.240;6.002;2023-03-02T10:34:12;43.43;;;20.23;;
25950;SDS011;13748;52.240;6.002;2023-03-02T10:36:40;47.10;;;21.00;;
25950;SDS011;13748;52.240;6.002;2023-03-02T10:39:11;41.23;;;20.40;;
25950;SDS011;13748;52.240;6.002;2023-03-02T10:41:55;42.33;;;21.43;;
25950;SDS011;13748;52.240;6.002;2023-03-02T10:44:28;43.20;;;19.83;;
25950;SDS011;13748;52.240;6.002;2023-03-02T10:46:56;39.97;;;19.80;;
25950;SDS011;13748;52.240;6.002;2023-03-02T10:49:25;41.03;;;19.90;;
25950;SDS011;13748;52.240;6.002;2023-03-02T10:51:57;38.77;;;18.57;;
25950;SDS011;13748;52.240;6.002;2023-03-02T10:54:30;34.80;;;18.27;;
25950;SDS011;13748;52.240;6.002;2023-03-02T10:57:01;36.40;;;18.30;;
25950;SDS011;13748;52.240;6.002;2023-03-02T11:02:27;35.83;;;18.27;;
25950;SDS011;13748;52.240;6.002;2023-03-02T11:04:55;39.33;;;19.60;;
25950;SDS011;13748;52.240;6.002;2023-03-02T11:07:26;35.50;;;18.57;;
25950;SDS011;13748;52.240;6.002;2023-03-02T11:09:57;32.97;;;17.40;;
25950;SDS011;13748;52.240;6.002;2023-03-02T11:12:30;37.23;;;18.83;;
25950;SDS011;13748;52.240;6.002;2023-03-02T11:17:59;33.87;;;17.97;;
25950;SDS011;13748;52.240;6.002;2023-03-02T11:20:46;32.83;;;17.43;;
25950;SDS011;13748;52.240;6.002;2023-03-02T11:23:17;33.23;;;17.17;;
25950;SDS011;13748;52.240;6.002;2023-03-02T11:25:51;32.80;;;16.97;;
25950;SDS011;13748;52.240;6.002;2023-03-02T11:28:42;29.57;;;15.37;;
25950;SDS011;13748;52.240;6.002;2023-03-02T11:31:25;29.10;;;16.20;;
25950;SDS011;13748;52.240;6.002;2023-03-02T11:34:01;29.60;;;16.73;;
25950;SDS011;13748;52.240;6.002;2023-03-02T11:39:28;33.97;;;16.90;;
25950;SDS011;13748;52.240;6.002;2023-03-02T11:42:38;31.37;;;17.10;;
25950;SDS011;13748;52.240;6.002;2023-03-02T11:47:40;28.57;;;15.87;;
25950;SDS011;13748;52.240;6.002;2023-03-02T11:50:22;29.80;;;15.87;;
25950;SDS011;13748;52.240;6.002;2023-03-02T11:52:53;30.30;;;16.33;;
25950;SDS011;13748;52.240;6.002;2023-03-02T11:55:25;29.60;;;15.77;;
25950;SDS011;13748;52.240;6.002;2023-03-02T11:57:57;29.07;;;15.87;;
25950;SDS011;13748;52.240;6.002;2023-03-02T12:03:00;29.57;;;15.50;;
25950;SDS011;13748;52.240;6.002;2023-03-02T12:05:30;27.60;;;15.83;;
25950;SDS011;13748;52.240;6.002;2023-03-02T12:08:29;30.70;;;15.90;;
25950;SDS011;13748;52.240;6.002;2023-03-02T12:11:00;30.63;;;16.33;;
25950;SDS011;13748;52.240;6.002;2023-03-02T12:13:56;27.53;;;14.90;;
25950;SDS011;13748;52.240;6.002;2023-03-02T12:19:49;26.83;;;14.47;;
25950;SDS011;13748;52.240;6.002;2023-03-02T12:22:00;25.73;;;14.57;;
25950;SDS011;13748;52.240;6.002;2023-03-02T12:24:31;29.30;;;14.60;;
25950;SDS011;13748;52.240;6.002;2023-03-02T12:29:45;28.47;;;15.20;;
25950;SDS011;13748;52.240;6.002;2023-03-02T12:34:50;24.50;;;13.63;;
25950;SDS011;13748;52.240;6.002;2023-03-02T12:37:26;23.83;;;13.53;;
25950;SDS011;13748;52.240;6.002;2023-03-02T12:48:23;18.53;;;11.57;;
25950;SDS011;13748;52.240;6.002;2023-03-02T12:51:03;21.83;;;13.33;;
25950;SDS011;13748;52.240;6.002;2023-03-02T12:53:31;24.93;;;13.23;;
25950;SDS011;13748;52.240;6.002;2023-03-02T12:55:57;23.83;;;13.23;;
25950;SDS011;13748;52.240;6.002;2023-03-02T12:58:25;23.07;;;14.30;;
25950;SDS011;13748;52.240;6.002;2023-03-02T13:00:55;22.47;;;12.90;;
25950;SDS011;13748;52.240;6.002;2023-03-02T13:03:24;24.53;;;14.00;;
25950;SDS011;13748;52.240;6.002;2023-03-02T13:06:03;22.53;;;13.40;;
25950;SDS011;13748;52.240;6.002;2023-03-02T13:08:37;23.83;;;12.53;;
25950;SDS011;13748;52.240;6.002;2023-03-02T13:11:07;25.03;;;14.03;;
25950;SDS011;13748;52.240;6.002;2023-03-02T13:13:35;20.07;;;12.07;;
25950;SDS011;13748;52.240;6.002;2023-03-02T13:16:16;24.13;;;13.57;;
25950;SDS011;13748;52.240;6.002;2023-03-02T13:18:45;24.83;;;13.60;;
25950;SDS011;13748;52.240;6.002;2023-03-02T13:21:15;20.00;;;12.47;;
25950;SDS011;13748;52.240;6.002;2023-03-02T13:23:46;24.93;;;13.20;;
25950;SDS011;13748;52.240;6.002;2023-03-02T13:26:25;20.03;;;11.87;;
25950;SDS011;13748;52.240;6.002;2023-03-02T13:29:16;23.17;;;12.07;;
25950;SDS011;13748;52.240;6.002;2023-03-02T13:31:48;20.60;;;11.03;;
25950;SDS011;13748;52.240;6.002;2023-03-02T13:34:26;18.77;;;11.30;;
25950;SDS011;13748;52.240;6.002;2023-03-02T13:36:56;18.43;;;10.97;;
25950;SDS011;13748;52.240;6.002;2023-03-02T13:39:30;22.13;;;12.60;;
25950;SDS011;13748;52.240;6.002;2023-03-02T13:42:01;19.20;;;12.20;;
25950;SDS011;13748;52.240;6.002;2023-03-02T13:44:29;18.90;;;12.07;;
25950;SDS011;13748;52.240;6.002;2023-03-02T13:46:58;21.33;;;11.50;;
25950;SDS011;13748;52.240;6.002;2023-03-02T13:49:35;18.10;;;11.60;;
25950;SDS011;13748;52.240;6.002;2023-03-02T13:52:07;18.53;;;11.10;;
25950;SDS011;13748;52.240;6.002;2023-03-02T13:54:44;20.77;;;10.73;;
25950;SDS011;13748;52.240;6.002;2023-03-02T13:57:17;16.97;;;10.97;;
25950;SDS011;13748;52.240;6.002;2023-03-02T13:59:50;19.70;;;11.57;;
25950;SDS011;13748;52.240;6.002;2023-03-02T14:02:27;21.97;;;12.13;;
25950;SDS011;13748;52.240;6.002;2023-03-02T14:04:55;22.63;;;12.00;;
25950;SDS011;13748;52.240;6.002;2023-03-02T14:07:22;20.70;;;11.80;;
25950;SDS011;13748;52.240;6.002;2023-03-02T14:09:49;21.63;;;12.73;;
25950;SDS011;13748;52.240;6.002;2023-03-02T14:14:51;22.07;;;11.97;;
25950;SDS011;13748;52.240;6.002;2023-03-02T14:17:21;23.80;;;12.93;;
25950;SDS011;13748;52.240;6.002;2023-03-02T14:19:50;22.50;;;11.43;;
25950;SDS011;13748;52.240;6.002;2023-03-02T14:22:18;18.57;;;10.47;;
25950;SDS011;13748;52.240;6.002;2023-03-02T14:24:45;18.13;;;11.10;;
25950;SDS011;13748;52.240;6.002;2023-03-02T14:27:16;16.13;;;10.53;;
25950;SDS011;13748;52.240;6.002;2023-03-02T14:29:44;17.50;;;10.53;;
25950;SDS011;13748;52.240;6.002;2023-03-02T14:32:12;18.43;;;10.47;;
25950;SDS011;13748;52.240;6.002;2023-03-02T14:34:40;16.00;;;10.63;;
25950;SDS011;13748;52.240;6.002;2023-03-02T14:37:11;18.10;;;11.03;;
25950;SDS011;13748;52.240;6.002;2023-03-02T14:39:41;17.03;;;9.97;;
25950;SDS011;13748;52.240;6.002;2023-03-02T14:42:12;15.73;;;10.47;;
25950;SDS011;13748;52.240;6.002;2023-03-02T14:44:40;15.60;;;10.13;;
25950;SDS011;13748;52.240;6.002;2023-03-02T14:47:08;18.13;;;9.83;;
25950;SDS011;13748;52.240;6.002;2023-03-02T14:49:35;17.33;;;10.63;;
25950;SDS011;13748;52.240;6.002;2023-03-02T14:52:06;14.70;;;9.60;;
25950;SDS011;13748;52.240;6.002;2023-03-02T14:54:38;16.93;;;9.43;;
25950;SDS011;13748;52.240;6.002;2023-03-02T14:57:12;15.60;;;9.63;;
25950;SDS011;13748;52.240;6.002;2023-03-02T14:59:42;13.37;;;8.43;;
25950;SDS011;13748;52.240;6.002;2023-03-02T15:02:10;18.77;;;10.47;;
25950;SDS011;13748;52.240;6.002;2023-03-02T15:04:49;15.53;;;9.10;;
25950;SDS011;13748;52.240;6.002;2023-03-02T15:07:22;15.77;;;9.40;;
25950;SDS011;13748;52.240;6.002;2023-03-02T15:09:49;14.60;;;9.50;;
25950;SDS011;13748;52.240;6.002;2023-03-02T15:12:16;15.00;;;10.33;;
25950;SDS011;13748;52.240;6.002;2023-03-02T15:14:43;15.17;;;10.23;;
25950;SDS011;13748;52.240;6.002;2023-03-02T15:17:12;16.87;;;11.07;;
25950;SDS011;13748;52.240;6.002;2023-03-02T15:19:38;15.90;;;10.47;;
25950;SDS011;13748;52.240;6.002;2023-03-02T15:22:05;18.00;;;10.97;;
25950;SDS011;13748;52.240;6.002;2023-03-02T15:24:32;18.00;;;10.50;;
25950;SDS011;13748;52.240;6.002;2023-03-02T15:26:59;16.73;;;10.30;;
25950;SDS011;13748;52.240;6.002;2023-03-02T15:29:26;18.13;;;10.23;;
25950;SDS011;13748;52.240;6.002;2023-03-02T15:31:52;16.97;;;10.67;;
25950;SDS011;13748;52.240;6.002;2023-03-02T15:34:19;18.60;;;11.47;;